Time;durP1;ratioP1;P1;durP2;ratioP2;P2;SDS_P1;SDS_P2;PMS_P1;PMS_P2;Temp;Humidity;BMP_temperature;BMP_pressure;BME280_temperature;BME280_humidity;BME280_pressure;Samples;Min_cycle;Max_cycle;Signal;HPM_P1;HPM_P2
2022/05/08 00:00:14;;;;;;;45.80;25.42;;;;;;;11.59;93.21;100069.22;5008047;28;20550;-52
2022/05/08 00:02:40;;;;;;;43.05;24.42;;;;;;;11.54;93.47;100071.75;5006216;28;20133;-51
2022/05/08 00:05:07;;;;;;;43.30;26.20;;;;;;;11.51;93.88;100072.22;5003671;28;20504;-50
2022/05/08 00:07:33;;;;;;;41.85;26.35;;;;;;;11.45;93.94;100079.31;5015780;28;20388;-51
2022/05/08 00:09:58;;;;;;;48.92;26.73;;;;;;;11.38;94.59;100074.03;5015191;28;20026;-53
2022/05/08 00:12:24;;;;;;;42.35;27.73;;;;;;;11.38;94.73;100068.66;4989379;28;20488;-54
2022/05/08 00:14:50;;;;;;;43.45;28.40;;;;;;;11.36;94.56;100064.59;4987674;28;20427;-54
2022/05/08 00:17:15;;;;;;;44.03;28.27;;;;;;;11.36;94.48;100065.38;5012111;28;20076;-54
2022/05/08 00:19:43;;;;;;;47.47;27.83;;;;;;;11.33;94.51;100063.16;5010871;28;20033;-53
2022/05/08 00:22:09;;;;;;;46.58;29.90;;;;;;;11.31;94.74;100064.44;5012817;28;20037;-52
2022/05/08 00:24:34;;;;;;;49.53;28.50;;;;;;;11.28;94.67;100063.00;5004586;28;20026;-51
2022/05/08 00:27:00;;;;;;;48.35;28.40;;;;;;;11.24;94.93;100056.47;5005728;28;20037;-54
2022/05/08 00:29:26;;;;;;;49.22;28.15;;;;;;;11.23;94.91;100061.03;5013474;28;20021;-54
2022/05/08 00:31:51;;;;;;;58.78;29.75;;;;;;;11.18;95.21;100062.72;5015303;28;20022;-53
2022/05/08 00:34:17;;;;;;;48.92;29.45;;;;;;;11.20;95.07;100066.81;5013063;28;20049;-54
2022/05/08 00:36:42;;;;;;;50.17;30.20;;;;;;;11.23;94.80;100061.03;5022285;28;20153;-53
2022/05/08 00:39:12;;;;;;;50.22;28.73;;;;;;;11.09;95.35;100059.53;5017412;28;20037;-50
2022/05/08 00:41:37;;;;;;;56.13;32.73;;;;;;;11.15;95.61;100063.19;5008375;28;20080;-53
2022/05/08 00:44:03;;;;;;;51.80;28.77;;;;;;;11.08;95.09;100062.44;5008370;28;20125;-53
2022/05/08 00:46:29;;;;;;;55.92;30.38;;;;;;;11.12;95.65;100056.41;5011856;28;20331;-54
2022/05/08 00:48:55;;;;;;;53.60;32.13;;;;;;;11.08;95.54;100051.72;5012871;28;20049;-52
2022/05/08 00:51:21;;;;;;;58.42;32.30;;;;;;;11.10;95.55;100052.31;5012823;28;20030;-53
2022/05/08 00:53:51;;;;;;;51.58;31.85;;;;;;;11.04;96.07;100051.34;5011767;28;20068;-54
2022/05/08 00:56:17;;;;;;;53.40;33.37;;;;;;;11.02;95.98;100050.75;4993766;28;20037;-52
2022/05/08 00:58:43;;;;;;;53.63;31.05;;;;;;;10.96;96.32;100043.63;5007854;28;20287;-52
2022/05/08 01:01:09;;;;;;;49.45;31.40;;;;;;;10.94;96.18;100040.34;5008505;28;20085;-53
2022/05/08 01:03:35;;;;;;;52.70;32.38;;;;;;;10.88;96.75;100044.72;4990332;28;20432;-53
2022/05/08 01:06:08;;;;;;;56.80;33.85;;;;;;;10.84;96.17;100035.50;5011793;28;20038;-53
2022/05/08 01:08:35;;;;;;;60.42;32.13;;;;;;;10.81;96.25;100049.38;5014622;28;20037;-53
2022/05/08 01:11:01;;;;;;;59.22;32.88;;;;;;;10.74;96.63;100044.06;5003705;28;20030;-53
2022/05/08 01:13:27;;;;;;;60.50;33.83;;;;;;;10.81;96.96;100044.00;5009024;28;20033;-54
2022/05/08 01:15:54;;;;;;;61.70;33.75;;;;;;;10.76;96.71;100043.84;5017769;28;20044;-52
2022/05/08 01:18:20;;;;;;;63.33;36.35;;;;;;;10.73;97.04;100044.28;5014058;28;20265;-52
2022/05/08 01:20:46;;;;;;;59.03;33.97;;;;;;;10.80;96.68;100050.38;4995256;28;20464;-51
2022/05/08 01:23:12;;;;;;;61.78;35.88;;;;;;;10.76;97.29;100052.72;4981491;28;20037;-53
2022/05/08 01:25:54;;;;;;;61.22;34.78;;;;;;;10.92;97.47;100047.78;5006428;28;20073;-54
2022/05/08 01:28:21;;;;;;;60.33;35.80;;;;;;;10.82;96.87;100048.31;5010811;28;20053;-52
2022/05/08 01:30:48;;;;;;;60.90;35.50;;;;;;;10.72;98.24;100048.00;5011171;28;20460;-50
2022/05/08 01:33:13;;;;;;;65.95;35.55;;;;;;;10.78;98.51;100049.78;5002404;28;20104;-51
2022/05/08 01:35:39;;;;;;;67.85;38.45;;;;;;;10.68;97.91;100058.34;5006053;28;20483;-53
2022/05/08 01:38:05;;;;;;;67.50;37.05;;;;;;;10.61;98.51;100056.78;5011692;28;20036;-53
2022/05/08 01:40:31;;;;;;;78.13;36.83;;;;;;;10.65;98.10;100058.81;5007786;28;20440;-53
2022/05/08 01:42:57;;;;;;;65.85;38.17;;;;;;;10.63;98.73;100058.19;5017866;28;20040;-53
2022/05/08 01:45:23;;;;;;;70.68;39.25;;;;;;;10.65;98.26;100068.72;4999059;28;20045;-52
2022/05/08 01:50:36;;;;;;;64.95;36.80;;;;;;;10.52;99.10;100065.13;5007374;28;20064;-50
2022/05/08 01:53:02;;;;;;;63.53;38.17;;;;;;;10.50;99.42;100064.50;5009895;28;20092;-53
2022/05/08 01:55:28;;;;;;;69.95;39.75;;;;;;;10.54;99.68;100073.75;5019419;28;20049;-52
2022/05/08 01:57:53;;;;;;;67.70;39.28;;;;;;;10.53;99.80;100071.28;5008069;28;20025;-52
2022/05/08 02:00:20;;;;;;;76.78;41.10;;;;;;;10.46;100.00;100067.84;5010246;28;20030;-54
2022/05/08 02:02:48;;;;;;;73.38;38.38;;;;;;;10.34;99.60;100065.09;5010025;28;20117;-51
2022/05/08 02:05:15;;;;;;;72.00;37.90;;;;;;;10.29;100.00;100065.75;4989895;28;20026;-53
2022/05/08 02:07:42;;;;;;;72.68;39.65;;;;;;;10.31;100.00;100066.38;5012882;28;20290;-52
2022/05/08 02:10:08;;;;;;;82.35;39.20;;;;;;;10.35;100.00;100069.41;4982188;28;20030;-53
2022/05/08 02:12:34;;;;;;;79.60;41.13;;;;;;;10.41;100.00;100076.59;4958179;28;20033;-54
2022/05/08 02:14:59;;;;;;;81.00;40.78;;;;;;;10.48;100.00;100076.50;5008606;28;20136;-51
2022/05/08 02:17:25;;;;;;;83.22;41.15;;;;;;;10.54;100.00;100078.31;5007003;28;20168;-52
2022/05/08 02:19:51;;;;;;;82.15;42.10;;;;;;;10.58;100.00;100091.06;5006564;28;20030;-51
2022/05/08 02:22:16;;;;;;;83.47;42.70;;;;;;;10.54;100.00;100079.13;5005309;28;20120;-51
2022/05/08 02:24:42;;;;;;;83.45;41.55;;;;;;;10.54;100.00;100078.31;5006386;28;20041;-53
2022/05/08 02:27:07;;;;;;;95.20;44.92;;;;;;;10.49;100.00;100080.84;5002410;28;20029;-54
2022/05/08 02:29:33;;;;;;;93.00;44.58;;;;;;;10.42;100.00;100080.06;5004320;28;20120;-52
2022/05/08 02:31:58;;;;;;;86.38;43.63;;;;;;;10.39;100.00;100081.34;5014372;28;20076;-52
2022/05/08 02:34:24;;;;;;;82.45;43.28;;;;;;;10.36;100.00;100082.59;5018069;28;20060;-53
2022/05/08 02:36:49;;;;;;;92.22;47.50;;;;;;;10.36;100.00;100081.78;5010703;28;20112;-53
2022/05/08 02:39:16;;;;;;;93.00;46.70;;;;;;;10.37;100.00;100080.72;5012965;28;20046;-52
2022/05/08 02:41:42;;;;;;;93.70;46.67;;;;;;;10.40;100.00;100082.16;5007800;28;20430;-53
2022/05/08 02:44:08;;;;;;;95.22;46.95;;;;;;;10.38;100.00;100081.53;5009891;28;20041;-51
2022/05/08 02:46:33;;;;;;;103.88;48.63;;;;;;;10.35;100.00;100086.31;5009508;28;20040;-53
2022/05/08 02:48:59;;;;;;;96.22;46.10;;;;;;;10.35;100.00;100085.47;5004403;28;20385;-50
2022/05/08 02:51:24;;;;;;;96.90;47.58;;;;;;;10.29;100.00;100089.88;4973102;28;20034;-51
2022/05/08 02:53:51;;;;;;;112.97;50.67;;;;;;;10.37;100.00;100078.06;5004231;28;20062;-51
2022/05/08 02:59:03;;;;;;;98.63;46.58;;;;;;;10.24;100.00;100091.53;5015035;28;20040;-51
2022/05/08 03:01:28;;;;;;;107.10;50.88;;;;;;;10.24;100.00;100100.41;5009701;28;20464;-51
2022/05/08 03:03:54;;;;;;;97.07;47.47;;;;;;;10.26;100.00;100089.44;5006272;28;20100;-53
2022/05/08 03:06:20;;;;;;;115.82;52.65;;;;;;;10.25;100.00;100095.84;5009604;28;20076;-53
2022/05/08 03:08:45;;;;;;;109.18;50.22;;;;;;;10.21;100.00;100092.81;5011737;28;20064;-51
2022/05/08 03:11:26;;;;;;;110.00;50.67;;;;;;;10.21;100.00;100092.81;4998815;28;20049;-51
2022/05/08 03:13:53;;;;;;;100.30;51.17;;;;;;;10.20;100.00;100093.81;5004399;28;20518;-53
2022/05/08 03:16:18;;;;;;;117.35;52.13;;;;;;;10.17;100.00;100090.78;5003785;28;20372;-52
2022/05/08 03:18:45;;;;;;;114.45;51.50;;;;;;;10.15;100.00;100099.84;4993844;28;20128;-50
2022/05/08 03:21:12;;;;;;;113.18;51.67;;;;;;;10.11;100.00;100101.31;5000542;28;20022;-52
2022/05/08 03:23:39;;;;;;;112.20;51.47;;;;;;;10.09;100.00;100092.69;5002966;28;20039;-51
2022/05/08 03:26:04;;;;;;;114.45;52.33;;;;;;;10.04;100.00;100097.88;5004710;28;20029;-51
2022/05/08 03:28:31;;;;;;;116.75;52.10;;;;;;;10.04;100.00;100097.88;4988355;28;20503;-53
2022/05/08 03:30:58;;;;;;;123.22;52.92;;;;;;;10.06;100.00;100093.13;5010673;28;20029;-50
2022/05/08 03:33:24;;;;;;;104.30;51.55;;;;;;;10.02;100.00;100099.94;5005748;28;20029;-54
2022/05/08 03:35:49;;;;;;;117.78;51.75;;;;;;;10.03;100.00;100098.91;5008456;28;20132;-54
2022/05/08 03:38:15;;;;;;;115.85;51.83;;;;;;;10.02;100.00;100097.25;5012526;28;20032;-51
2022/05/08 03:40:40;;;;;;;113.07;50.60;;;;;;;9.98;100.00;100097.91;5010551;28;20506;-52
2022/05/08 03:43:06;;;;;;;124.43;54.17;;;;;;;9.95;100.00;100096.50;5003367;28;20444;-52
2022/05/08 03:45:31;;;;;;;113.35;52.95;;;;;;;9.92;100.00;100095.06;5005090;28;20127;-52
2022/05/08 03:47:59;;;;;;;120.38;53.65;;;;;;;9.91;100.00;100090.75;5004172;28;20105;-53
2022/05/08 03:50:25;;;;;;;115.55;51.75;;;;;;;9.88;100.00;100098.38;5007127;28;20570;-50
2022/05/08 03:52:50;;;;;;;114.22;53.20;;;;;;;9.87;100.00;100100.25;5015126;28;20069;-51
2022/05/08 03:55:16;;;;;;;121.35;52.50;;;;;;;9.84;100.00;100102.56;4995713;28;20018;-53
2022/05/08 03:57:42;;;;;;;123.68;56.03;;;;;;;9.88;100.00;100098.38;5009760;28;20211;-51
2022/05/08 04:00:09;;;;;;;120.47;53.45;;;;;;;9.90;100.00;100104.34;5007622;28;20030;-52
2022/05/08 04:02:34;;;;;;;124.95;55.75;;;;;;;9.87;100.00;100099.44;4997734;28;20040;-52
2022/05/08 04:05:00;;;;;;;127.20;55.47;;;;;;;9.79;100.00;100097.03;5017524;28;20030;-51
2022/05/08 04:07:26;;;;;;;133.80;55.28;;;;;;;9.81;100.00;100102.97;5002551;28;20033;-53
2022/05/08 04:09:52;;;;;;;119.40;54.90;;;;;;;9.79;100.00;100102.38;5013456;28;20254;-54
2022/05/08 04:12:18;;;;;;;119.85;52.95;;;;;;;9.84;100.00;100094.53;5008786;28;20026;-53
2022/05/08 04:14:43;;;;;;;122.22;55.42;;;;;;;9.85;100.00;100101.50;5013726;28;20038;-51
2022/05/08 04:17:09;;;;;;;127.75;55.15;;;;;;;9.88;100.00;100101.06;5015510;28;20060;-53
2022/05/08 04:19:34;;;;;;;123.53;54.03;;;;;;;9.89;100.00;100097.38;5018212;28;20076;-53
2022/05/08 04:24:44;;;;;;;110.88;52.17;;;;;;;9.96;100.00;100108.84;5009716;28;20104;-53
2022/05/08 04:27:10;;;;;;;111.03;51.67;;;;;;;9.93;100.00;100114.63;5009082;28;20802;-52
2022/05/08 04:29:37;;;;;;;114.38;53.10;;;;;;;10.00;100.00;100110.03;4996325;28;20450;-54
2022/05/08 04:32:03;;;;;;;107.60;51.03;;;;;;;9.93;100.00;100115.47;5012938;28;20026;-53
2022/05/08 04:34:29;;;;;;;109.60;52.72;;;;;;;9.99;100.00;100115.63;5017527;28;20112;-51
2022/05/08 04:36:55;;;;;;;110.13;52.90;;;;;;;10.05;100.00;100115.56;5013816;28;21418;-54
2022/05/08 04:39:24;;;;;;;113.75;51.22;;;;;;;10.50;100.00;100131.53;5010203;28;20168;-53
2022/05/08 04:41:49;;;;;;;100.47;48.38;;;;;;;10.75;100.00;100128.00;5016673;28;20495;-52
2022/05/08 04:44:15;;;;;;;92.85;48.05;;;;;;;11.02;100.00;100129.34;5010871;28;20168;-54
2022/05/08 04:46:43;;;;;;;91.85;45.95;;;;;;;11.02;98.88;100124.00;5021005;28;20037;-52
2022/05/08 04:49:10;;;;;;;80.60;44.90;;;;;;;11.17;97.06;100133.53;5020901;28;20022;-53
2022/05/08 04:51:36;;;;;;;85.53;45.55;;;;;;;10.84;98.88;100140.09;5012775;28;20439;-52
2022/05/08 04:54:01;;;;;;;88.60;46.67;;;;;;;10.92;99.97;100139.78;5010955;28;20311;-52
2022/05/08 04:56:27;;;;;;;85.10;44.70;;;;;;;11.29;96.79;100145.16;5008031;28;20034;-53
2022/05/08 04:58:52;;;;;;;77.55;42.60;;;;;;;11.78;94.67;100137.94;4996193;28;20172;-53
2022/05/08 05:01:18;;;;;;;84.47;41.90;;;;;;;12.19;90.33;100140.88;5014601;28;20132;-50
2022/05/08 05:03:44;;;;;;;68.47;39.45;;;;;;;12.25;89.60;100146.13;4995617;28;20535;-52
2022/05/08 05:06:10;;;;;;;69.60;40.45;;;;;;;12.16;90.61;100144.03;5005902;28;20026;-52
2022/05/08 05:08:35;;;;;;;69.55;38.92;;;;;;;12.92;86.37;100147.69;5009875;28;20030;-52
2022/05/08 05:11:01;;;;;;;68.70;39.20;;;;;;;13.30;84.19;100146.38;5003069;28;20196;-51
2022/05/08 05:13:26;;;;;;;68.50;37.63;;;;;;;13.30;83.18;100146.38;5007804;28;20026;-50
2022/05/08 05:15:52;;;;;;;62.05;36.33;;;;;;;13.33;84.27;100145.91;4996551;28;20038;-53
2022/05/08 05:18:18;;;;;;;60.55;34.38;;;;;;;14.10;81.56;100147.34;5018711;28;20572;-53
2022/05/08 05:20:45;;;;;;;58.38;35.13;;;;;;;14.73;79.66;100146.25;4995134;28;20435;-53
2022/05/08 05:23:11;;;;;;;55.53;32.75;;;;;;;15.44;74.39;100154.47;4985934;28;20029;-51
2022/05/08 05:25:37;;;;;;;51.78;31.30;;;;;;;15.36;75.06;100162.22;5007164;28;20034;-51
2022/05/08 05:28:02;;;;;;;52.70;32.22;;;;;;;15.12;75.97;100158.91;5018519;28;20104;-51
2022/05/08 05:30:28;;;;;;;52.55;32.45;;;;;;;15.66;75.77;100170.69;5010378;28;20048;-54
2022/05/08 05:32:54;;;;;;;53.00;32.70;;;;;;;15.05;75.44;100169.91;5017045;28;20137;-52
2022/05/08 05:35:19;;;;;;;50.85;31.90;;;;;;;16.43;71.21;100174.16;5005565;28;20029;-54
2022/05/08 05:37:45;;;;;;;51.80;31.27;;;;;;;16.54;70.30;100175.88;5006382;28;20038;-51
2022/05/08 05:40:11;;;;;;;46.55;29.60;;;;;;;16.18;71.28;100178.28;5011979;28;20339;-53
2022/05/08 05:42:36;;;;;;;51.25;30.52;;;;;;;16.42;69.97;100175.22;5012312;28;20026;-52
2022/05/08 05:45:02;;;;;;;48.60;31.30;;;;;;;15.42;74.35;100180.09;5006438;28;20045;-53
2022/05/08 05:47:49;;;;;;;54.75;31.65;;;;;;;14.45;78.23;100176.78;5010052;28;20385;-53
2022/05/08 05:50:18;;;;;;;49.28;31.35;;;;;;;14.86;75.96;100178.28;5014177;28;20029;-54
2022/05/08 05:52:47;;;;;;;52.03;32.17;;;;;;;14.86;78.61;100182.88;5007959;28;20040;-51
2022/05/08 05:55:12;;;;;;;45.50;30.85;;;;;;;14.93;75.71;100183.50;5017087;28;20217;-53
2022/05/08 05:57:41;;;;;;;48.22;31.38;;;;;;;16.10;74.33;100183.31;5007303;28;20034;-54
2022/05/08 06:00:09;;;;;;;44.83;29.83;;;;;;;16.26;71.50;100179.69;5009339;28;20091;-53
2022/05/08 06:02:35;;;;;;;48.88;30.80;;;;;;;16.41;71.39;100181.72;5009932;28;20026;-51
2022/05/08 06:05:00;;;;;;;50.58;31.98;;;;;;;15.72;74.77;100185.94;4988884;28;20034;-53
2022/05/08 06:07:26;;;;;;;49.83;30.90;;;;;;;16.79;70.75;100182.56;5005527;28;20029;-54
2022/05/08 06:09:52;;;;;;;44.25;28.42;;;;;;;16.76;69.55;100191.19;5014945;28;20112;-54
2022/05/08 06:12:17;;;;;;;43.28;29.13;;;;;;;16.57;71.07;100194.31;5006237;28;20551;-53
2022/05/08 06:14:46;;;;;;;44.20;29.25;;;;;;;17.38;69.19;100200.53;4989092;28;20026;-51
2022/05/08 06:17:14;;;;;;;43.58;28.30;;;;;;;17.80;67.41;100197.75;5005086;28;20478;-54
2022/05/08 06:19:40;;;;;;;39.50;25.52;;;;;;;18.20;64.94;100190.78;5006449;28;20084;-53
2022/05/08 06:22:06;;;;;;;40.90;28.30;;;;;;;17.30;68.33;100196.44;5011815;28;20404;-53
2022/05/08 06:24:31;;;;;;;41.60;26.63;;;;;;;17.25;68.77;100197.22;5007202;28;20109;-54
2022/05/08 06:26:57;;;;;;;37.85;26.63;;;;;;;16.52;70.88;100196.13;5011340;28;20587;-54
2022/05/08 06:29:22;;;;;;;36.97;25.55;;;;;;;17.61;67.69;100199.28;4996599;28;20026;-53
2022/05/08 06:31:51;;;;;;;37.38;25.05;;;;;;;18.23;65.15;100194.84;5021087;28;20399;-52
2022/05/08 06:34:17;;;;;;;30.73;21.55;;;;;;;20.31;61.29;100202.72;5010210;28;20030;-51
2022/05/08 06:36:44;;;;;;;35.45;24.90;;;;;;;17.92;64.47;100200.19;5013808;28;20029;-53
2022/05/08 06:39:09;;;;;;;33.15;22.88;;;;;;;17.95;65.85;100201.59;4990504;28;20026;-54
2022/05/08 06:41:36;;;;;;;32.83;22.30;;;;;;;17.76;65.07;100202.03;5006845;28;20562;-51
2022/05/08 06:44:02;;;;;;;35.25;23.70;;;;;;;16.97;68.97;100211.97;5010565;28;20115;-51
2022/05/08 06:46:31;;;;;;;33.92;24.30;;;;;;;16.87;69.97;100206.44;5008017;28;20038;-53
2022/05/08 06:48:57;;;;;;;36.88;23.27;;;;;;;16.20;71.99;100215.91;5009998;28;20030;-53
2022/05/08 06:51:23;;;;;;;34.30;23.98;;;;;;;16.32;71.83;100208.41;5007606;28;20037;-51
2022/05/08 06:53:48;;;;;;;33.75;23.80;;;;;;;16.62;70.85;100212.47;5016903;28;20116;-56
2022/05/08 06:56:16;;;;;;;34.38;22.35;;;;;;;18.56;66.42;100209.78;5005517;28;20046;-61
2022/05/08 07:01:35;;;;;;;34.00;22.83;;;;;;;18.90;64.50;100214.72;4999623;28;20308;-57
2022/05/08 07:04:03;;;;;;;30.85;22.02;;;;;;;20.84;57.58;100216.47;5004332;28;20057;-57
2022/05/08 07:06:29;;;;;;;28.33;20.02;;;;;;;18.77;61.81;100209.81;5009198;28;20037;-57
2022/05/08 07:08:55;;;;;;;31.08;20.90;;;;;;;18.27;63.89;100210.34;5004929;28;20498;-56
2022/05/08 07:11:21;;;;;;;32.67;21.92;;;;;;;18.13;65.91;100214.66;5009736;28;20101;-57
2022/05/08 07:13:47;;;;;;;33.95;22.30;;;;;;;19.32;62.89;100217.06;5003423;28;20046;-58
2022/05/08 07:16:13;;;;;;;31.35;21.92;;;;;;;19.26;62.28;100220.06;5011080;28;20033;-58
2022/05/08 07:18:39;;;;;;;36.53;22.38;;;;;;;19.64;62.50;100213.13;5009798;28;20056;-58
2022/05/08 07:21:05;;;;;;;28.13;21.30;;;;;;;20.70;58.70;100212.78;5011380;28;20029;-61
2022/05/08 07:23:32;;;;;;;28.15;18.52;;;;;;;20.85;57.72;100223.53;5012058;28;20156;-57
2022/05/08 07:25:58;;;;;;;29.75;19.80;;;;;;;19.12;59.27;100220.66;4999488;28;20037;-57
2022/05/08 07:28:23;;;;;;;25.38;19.38;;;;;;;18.81;64.23;100217.16;5014212;28;20021;-58
2022/05/08 07:30:49;;;;;;;25.77;19.60;;;;;;;19.98;58.82;100213.25;5010292;28;20034;-58
2022/05/08 07:33:16;;;;;;;24.33;18.65;;;;;;;21.15;55.92;100223.53;5004524;28;20385;-58
2022/05/08 07:38:30;;;;;;;26.35;19.38;;;;;;;19.73;60.65;100219.66;5009106;28;20032;-58
2022/05/08 07:40:57;;;;;;;27.98;19.75;;;;;;;19.78;57.83;100216.91;5011444;28;20042;-58
2022/05/08 07:43:23;;;;;;;25.75;18.02;;;;;;;20.49;58.99;100220.25;4990766;28;20026;-58
2022/05/08 07:45:48;;;;;;;25.48;17.48;;;;;;;20.86;57.09;100227.88;5009473;28;20070;-58
2022/05/08 07:48:16;;;;;;;30.25;18.90;;;;;;;18.72;63.38;100224.16;5011851;28;20686;-58
2022/05/08 07:50:42;;;;;;;24.23;17.88;;;;;;;18.73;61.74;100229.34;5012260;28;20025;-58
2022/05/08 07:53:07;;;;;;;27.05;18.92;;;;;;;21.14;56.27;100230.06;5011492;28;20112;-58
2022/05/08 07:55:33;;;;;;;23.45;17.65;;;;;;;18.99;62.55;100232.06;5018250;28;20472;-58
2022/05/08 07:57:59;;;;;;;25.55;19.20;;;;;;;18.75;61.71;100231.78;5012214;28;20029;-58
2022/05/08 08:00:27;;;;;;;27.50;18.33;;;;;;;18.24;64.73;100224.41;5020574;28;20044;-58
2022/05/08 08:02:54;;;;;;;26.80;18.92;;;;;;;16.61;68.71;100225.19;5013530;28;20618;-58
2022/05/08 08:05:20;;;;;;;28.70;19.17;;;;;;;18.09;68.16;100227.09;5019453;28;20515;-57
2022/05/08 08:07:46;;;;;;;30.38;21.25;;;;;;;18.41;64.48;100235.03;5011444;28;20380;-59
2022/05/08 08:10:12;;;;;;;33.38;19.85;;;;;;;18.83;64.09;100227.75;5007102;28;20474;-56
2022/05/08 08:12:37;;;;;;;25.92;20.65;;;;;;;20.41;57.78;100242.66;5005855;28;20315;-59
2022/05/08 08:15:03;;;;;;;25.05;17.95;;;;;;;18.06;64.38;100238.50;5010413;28;20056;-58
2022/05/08 08:17:29;;;;;;;28.23;19.08;;;;;;;17.61;65.12;100238.03;5014300;28;20034;-58
2022/05/08 08:19:55;;;;;;;27.83;16.90;;;;;;;17.84;65.50;100241.41;5017804;28;20128;-58
2022/05/08 08:22:21;;;;;;;29.08;19.27;;;;;;;17.76;66.77;100239.19;5019886;28;20029;-58
2022/05/08 08:24:47;;;;;;;25.55;18.08;;;;;;;17.89;65.54;100244.94;5017497;28;20223;-59
2022/05/08 08:27:13;;;;;;;25.05;17.55;;;;;;;18.13;63.90;100244.50;5023447;28;20026;-58
2022/05/08 08:29:39;;;;;;;26.95;17.85;;;;;;;19.79;60.65;100240.31;5018859;28;20119;-59
2022/05/08 08:32:04;;;;;;;25.13;18.88;;;;;;;18.58;63.95;100240.22;4993775;28;20097;-59
2022/05/08 08:34:30;;;;;;;23.90;16.88;;;;;;;17.98;64.84;100252.59;5017980;28;20029;-57
2022/05/08 08:36:56;;;;;;;27.42;17.63;;;;;;;19.78;60.70;100241.38;5014901;28;20029;-58
2022/05/08 08:39:22;;;;;;;28.33;19.02;;;;;;;19.44;62.10;100241.19;5016269;28;20049;-58
2022/05/08 08:41:52;;;;;;;28.98;20.70;;;;;;;18.87;63.92;100247.81;4982239;28;20480;-58
2022/05/08 08:49:52;;;;;;;26.60;19.55;;;;;;;19.59;60.49;100243.91;4999401;28;20100;-58
2022/05/08 08:52:18;;;;;;;27.20;19.58;;;;;;;18.74;64.17;100247.25;5009226;28;20079;-58
2022/05/08 08:54:43;;;;;;;28.40;20.52;;;;;;;18.28;66.58;100236.38;4997758;28;20017;-59
2022/05/08 08:57:09;;;;;;;29.42;20.23;;;;;;;18.51;65.58;100245.91;4995471;28;20065;-58
2022/05/08 08:59:35;;;;;;;28.05;19.02;;;;;;;17.96;65.36;100243.91;5011582;28;20532;-58
2022/05/08 09:02:01;;;;;;;27.88;19.13;;;;;;;17.97;66.53;100242.81;5019574;28;20128;-58
2022/05/08 09:04:26;;;;;;;26.95;19.50;;;;;;;19.58;62.12;100247.69;4995652;28;20026;-58
2022/05/08 09:06:52;;;;;;;29.17;20.20;;;;;;;19.60;61.45;100240.06;5012219;28;20133;-58
2022/05/08 09:09:24;;;;;;;30.77;20.10;;;;;;;18.45;65.28;100244.28;5020320;28;20026;-58
2022/05/08 09:11:51;;;;;;;29.92;21.33;;;;;;;18.85;65.00;100245.41;5010365;28;20029;-57
2022/05/08 09:14:33;;;;;;;31.55;22.35;;;;;;;20.60;60.00;100243.63;4982579;28;20031;-58
2022/05/08 09:16:59;;;;;;;29.83;20.33;;;;;;;19.24;63.86;100241.25;5007642;28;20514;-58
2022/05/08 09:19:37;;;;;;;29.45;22.25;;;;;;;18.19;67.33;100243.41;5009124;28;20535;-58
2022/05/08 09:22:04;;;;;;;32.95;22.42;;;;;;;18.23;67.24;100244.50;5010688;28;20029;-58
2022/05/08 09:24:32;;;;;;;33.60;21.48;;;;;;;19.14;63.45;100245.63;5009557;28;20452;-57
2022/05/08 09:27:18;;;;;;;30.25;20.48;;;;;;;19.35;63.86;100242.88;5008448;28;20076;-57
2022/05/08 09:29:44;;;;;;;28.65;19.88;;;;;;;18.73;64.44;100248.34;5004756;28;20068;-58
2022/05/08 09:32:10;;;;;;;29.42;19.92;;;;;;;18.80;64.22;100247.31;5010351;28;20025;-58
2022/05/08 09:34:59;;;;;;;27.20;20.20;;;;;;;18.15;66.35;100253.19;5008840;28;20626;-58
2022/05/08 09:37:27;;;;;;;32.78;20.95;;;;;;;18.13;65.52;100249.91;5003498;28;20064;-58
2022/05/08 09:40:05;;;;;;;28.17;20.42;;;;;;;18.19;65.83;100253.44;5010135;28;20345;-58
2022/05/08 09:42:37;;;;;;;30.50;20.33;;;;;;;18.20;65.67;100250.47;4989497;28;20334;-58
2022/05/08 09:45:07;;;;;;;28.88;20.35;;;;;;;18.10;66.60;100247.75;5004868;28;20522;-58
2022/05/08 09:47:43;;;;;;;29.88;19.65;;;;;;;18.07;65.03;100248.25;5012096;28;20037;-57
2022/05/08 09:50:09;;;;;;;27.10;19.67;;;;;;;18.84;63.91;100242.94;5013479;28;20392;-58
2022/05/08 09:52:38;;;;;;;32.85;19.40;;;;;;;19.33;62.42;100250.50;5008695;28;20048;-58
2022/05/08 09:55:04;;;;;;;29.15;17.88;;;;;;;19.44;61.82;100243.13;5007131;28;20029;-58
2022/05/08 09:57:29;;;;;;;26.02;18.30;;;;;;;19.25;62.17;100245.63;5006289;28;20477;-58
2022/05/08 09:59:57;;;;;;;23.67;17.73;;;;;;;18.85;63.73;100247.31;4988350;28;20029;-58
2022/05/08 10:02:22;;;;;;;24.08;17.95;;;;;;;18.66;63.78;100250.53;4989970;28;21475;-58
2022/05/08 10:04:48;;;;;;;27.63;18.50;;;;;;;19.24;62.39;100246.69;5007643;28;20053;-58
2022/05/08 10:07:13;;;;;;;22.60;16.80;;;;;;;20.35;59.34;100250.06;4998177;28;20087;-58
2022/05/08 10:15:18;;;;;;;29.17;17.70;;;;;;;19.58;60.42;100246.88;4984741;28;20459;-58
2022/05/08 10:17:43;;;;;;;24.75;17.45;;;;;;;19.78;59.13;100235.94;5007220;28;20506;-58
2022/05/08 10:20:09;;;;;;;28.90;17.55;;;;;;;20.15;60.25;100237.38;5006898;28;20030;-58
2022/05/08 10:22:48;;;;;;;26.02;16.55;;;;;;;19.43;60.62;100239.59;5016895;28;20132;-58
2022/05/08 10:25:15;;;;;;;22.38;16.58;;;;;;;19.57;60.55;100234.38;5011186;28;20035;-58
2022/05/08 10:27:41;;;;;;;23.77;16.42;;;;;;;20.03;58.85;100235.00;5015125;28;20037;-58
2022/05/08 10:30:06;;;;;;;22.13;15.32;;;;;;;20.45;58.23;100233.66;4995638;28;20116;-58
2022/05/08 10:32:32;;;;;;;22.33;15.70;;;;;;;20.65;57.42;100237.34;5006004;28;20476;-58
2022/05/08 10:35:09;;;;;;;22.30;15.80;;;;;;;20.16;59.22;100233.56;5010815;28;20033;-58
2022/05/08 10:37:42;;;;;;;21.65;16.23;;;;;;;20.28;58.33;100233.22;5005453;28;20077;-58
2022/05/08 10:40:22;;;;;;;23.58;14.93;;;;;;;20.77;57.27;100237.78;4997420;28;20344;-58
2022/05/08 10:43:14;;;;;;;22.15;14.95;;;;;;;19.82;58.08;100226.16;5007665;28;20400;-58
2022/05/08 10:45:43;;;;;;;17.48;13.85;;;;;;;21.05;56.88;100230.72;5006724;28;20052;-58
2022/05/08 10:48:21;;;;;;;22.05;14.95;;;;;;;20.58;58.59;100234.94;5005610;28;20034;-59
2022/05/08 10:50:51;;;;;;;22.40;15.98;;;;;;;20.51;57.62;100231.69;5008582;28;20025;-58
2022/05/08 10:53:35;;;;;;;25.80;14.88;;;;;;;19.59;60.51;100234.91;5005106;28;20030;-58
2022/05/08 10:56:06;;;;;;;23.35;16.00;;;;;;;20.68;57.95;100237.56;5008347;28;20452;-58
2022/05/08 10:58:32;;;;;;;21.77;17.17;;;;;;;20.94;57.42;100228.38;5011361;28;20068;-58
2022/05/08 11:00:59;;;;;;;28.40;17.25;;;;;;;20.34;59.34;100234.81;5007128;28;20384;-58
2022/05/08 11:03:25;;;;;;;31.77;17.38;;;;;;;20.38;59.75;100226.91;4990439;28;20033;-58
2022/05/08 11:05:52;;;;;;;28.15;18.25;;;;;;;19.34;59.50;100231.16;5009369;28;20041;-58
2022/05/08 11:08:22;;;;;;;29.95;18.50;;;;;;;20.23;58.53;100236.78;5005348;28;20040;-58
2022/05/08 11:10:55;;;;;;;27.92;17.05;;;;;;;20.51;58.58;100228.16;5010143;28;20041;-57
2022/05/08 11:13:21;;;;;;;29.27;17.42;;;;;;;20.81;57.75;100236.09;4991369;28;20025;-58
2022/05/08 11:15:48;;;;;;;26.38;17.13;;;;;;;20.48;58.57;100232.25;5011688;28;20044;-58
2022/05/08 11:18:18;;;;;;;21.13;15.65;;;;;;;20.71;58.23;100238.09;4991539;28;20040;-59
2022/05/08 11:20:53;;;;;;;37.67;18.38;;;;;;;20.71;57.50;100230.75;5006136;28;20775;-58
2022/05/08 11:23:22;;;;;;;24.95;16.67;;;;;;;20.52;58.15;100227.88;5006813;28;20030;-58
2022/05/08 11:25:52;;;;;;;26.38;16.55;;;;;;;20.65;57.64;100231.91;5012650;28;20025;-58
2022/05/08 11:28:19;;;;;;;29.05;17.05;;;;;;;20.58;56.81;100225.97;5002532;28;20052;-58
2022/05/08 11:30:48;;;;;;;25.98;16.42;;;;;;;20.17;57.41;100228.97;5008563;28;20081;-58